createdAt,value
2022-12-11T00:00:08.128Z,2.00
2022-12-11T00:01:11.762Z,2.00
2022-12-11T00:02:19.128Z,2.00
2022-12-11T00:03:22.585Z,2.00
2022-12-11T00:04:26.620Z,2.00
2022-12-11T00:05:30.590Z,2.00
2022-12-11T00:06:37.502Z,2.00
2022-12-11T00:07:40.669Z,2.00
2022-12-11T00:08:44.550Z,2.00
2022-12-11T00:09:49.834Z,2.10
2022-12-11T00:10:53.808Z,2.00
2022-12-11T00:11:56.584Z,2.00
2022-12-11T00:13:12.018Z,2.00
2022-12-11T00:14:16.126Z,2.10
2022-12-11T00:15:19.630Z,2.10
2022-12-11T00:16:26.646Z,2.10
2022-12-11T00:17:30.512Z,2.10
2022-12-11T00:18:33.248Z,2.10
2022-12-11T00:19:37.044Z,2.10
2022-12-11T00:20:41.243Z,2.10
2022-12-11T00:21:45.054Z,2.10
2022-12-11T00:22:50.676Z,2.10
2022-12-11T00:23:54.521Z,2.10
2022-12-11T00:24:57.085Z,2.10
2022-12-11T00:26:00.520Z,2.10
2022-12-11T00:27:03.290Z,2.10
2022-12-11T00:28:07.049Z,2.10
2022-12-11T00:29:14.585Z,2.10
2022-12-11T00:30:18.383Z,2.10
2022-12-11T00:31:22.524Z,2.10
2022-12-11T00:32:28.343Z,2.10
2022-12-11T00:33:31.210Z,2.10
2022-12-11T00:34:38.424Z,2.10
2022-12-11T00:35:45.087Z,2.10
2022-12-11T00:36:48.861Z,2.10
2022-12-11T00:37:51.531Z,2.10
2022-12-11T00:38:58.110Z,2.10
2022-12-11T00:40:00.712Z,2.10
2022-12-11T00:41:07.204Z,2.10
2022-12-11T00:42:09.904Z,2.10
2022-12-11T00:43:14.610Z,2.10
2022-12-11T00:44:17.309Z,2.10
2022-12-11T00:45:20.968Z,2.10
2022-12-11T00:46:26.285Z,2.10
2022-12-11T00:47:32.634Z,2.10
2022-12-11T00:48:37.666Z,2.10
2022-12-11T00:49:43.942Z,2.10
2022-12-11T00:50:54.695Z,2.20
2022-12-11T00:52:00.407Z,2.20
2022-12-11T00:53:06.426Z,2.20
2022-12-11T00:54:11.296Z,2.20
2022-12-11T00:55:13.768Z,2.20
2022-12-11T00:56:21.624Z,2.10
2022-12-11T00:57:24.245Z,2.20
2022-12-11T00:58:28.000Z,2.20
2022-12-11T00:59:31.587Z,2.20
2022-12-11T01:00:34.620Z,2.20
2022-12-11T01:01:39.045Z,2.20
2022-12-11T01:02:41.473Z,2.20
2022-12-11T01:03:44.980Z,2.20
2022-12-11T01:04:47.393Z,2.20
2022-12-11T01:05:56.520Z,2.20
2022-12-11T01:06:58.710Z,2.20
2022-12-11T01:08:02.638Z,2.20
2022-12-11T01:09:23.923Z,2.20
2022-12-11T01:10:26.965Z,2.20
2022-12-11T01:11:30.346Z,2.20
2022-12-11T01:12:33.573Z,2.20
2022-12-11T01:13:41.420Z,2.20
2022-12-11T01:14:44.718Z,2.20
2022-12-11T01:15:48.660Z,2.20
2022-12-11T01:16:52.106Z,2.20
2022-12-11T01:17:55.721Z,2.20
2022-12-11T01:18:58.592Z,2.20
2022-12-11T01:20:02.456Z,2.20
2022-12-11T01:21:12.129Z,2.20
2022-12-11T01:22:15.681Z,2.20
2022-12-11T01:23:18.296Z,2.20
2022-12-11T01:24:21.655Z,2.20
2022-12-11T01:25:28.607Z,2.20
2022-12-11T01:26:31.645Z,2.20
2022-12-11T01:27:35.417Z,2.20
2022-12-11T01:28:38.291Z,2.20
2022-12-11T01:29:41.855Z,2.20
2022-12-11T01:30:44.376Z,2.20
2022-12-11T01:31:48.051Z,2.20
2022-12-11T01:32:50.765Z,2.20
2022-12-11T01:33:58.131Z,2.30
2022-12-11T01:35:02.662Z,2.30
2022-12-11T01:36:11.996Z,2.30
2022-12-11T01:37:14.455Z,2.30
2022-12-11T01:38:17.846Z,2.30
2022-12-11T01:39:20.419Z,2.30
2022-12-11T01:40:26.467Z,2.30
2022-12-11T01:41:29.985Z,2.30
2022-12-11T01:42:33.266Z,2.30
2022-12-11T01:43:58.550Z,2.30
2022-12-11T01:45:32.124Z,2.30
2022-12-11T01:46:36.612Z,2.30
2022-12-11T01:47:40.078Z,2.30
2022-12-11T01:48:42.569Z,2.30
2022-12-11T01:49:46.307Z,2.30
2022-12-11T01:50:52.639Z,2.30
2022-12-11T01:52:03.938Z,2.30
2022-12-11T01:53:09.241Z,2.30
2022-12-11T01:54:17.241Z,2.30
2022-12-11T01:55:20.806Z,2.30
2022-12-11T01:56:25.311Z,2.30
2022-12-11T01:57:27.935Z,2.30
2022-12-11T01:58:36.279Z,2.30
2022-12-11T01:59:44.922Z,2.30
2022-12-11T02:00:49.126Z,2.30
2022-12-11T02:01:57.272Z,2.30
2022-12-11T02:03:00.727Z,2.30
2022-12-11T02:04:04.121Z,2.30
2022-12-11T02:05:11.013Z,2.30
2022-12-11T02:06:32.935Z,2.30
2022-12-11T02:07:41.438Z,2.30
2022-12-11T02:08:47.533Z,2.30
2022-12-11T02:09:50.879Z,2.30
2022-12-11T02:11:08.909Z,2.30
2022-12-11T02:12:24.139Z,2.30
2022-12-11T02:13:38.060Z,2.30
2022-12-11T02:14:49.322Z,2.30
2022-12-11T02:16:06.203Z,2.30
2022-12-11T02:17:16.781Z,2.30
2022-12-11T02:18:32.410Z,2.30
2022-12-11T02:19:53.520Z,2.30
2022-12-11T02:21:04.433Z,2.30
2022-12-11T03:52:01.370Z,2.20
2022-12-11T03:53:06.985Z,2.20
2022-12-11T03:54:11.910Z,2.20
2022-12-11T03:55:19.574Z,2.20
2022-12-11T03:56:25.420Z,2.20
2022-12-11T03:57:36.210Z,2.20
2022-12-11T03:58:40.257Z,2.20
2022-12-11T03:59:43.024Z,2.20
2022-12-11T04:00:46.354Z,2.20
2022-12-11T04:01:51.895Z,2.20
2022-12-11T04:03:14.134Z,2.20
2022-12-11T04:04:22.052Z,2.20
2022-12-11T04:05:24.483Z,2.20
2022-12-11T04:06:30.660Z,2.20
2022-12-11T04:07:38.873Z,2.20
2022-12-11T04:08:46.208Z,2.20
2022-12-11T04:09:49.582Z,2.20
2022-12-11T04:11:13.269Z,2.20
2022-12-11T04:12:16.638Z,2.20
2022-12-11T04:13:19.057Z,2.20
2022-12-11T04:14:40.316Z,2.20
2022-12-11T04:15:43.778Z,2.20
2022-12-11T04:16:46.945Z,2.20
2022-12-11T04:18:07.437Z,2.20
2022-12-11T04:19:31.035Z,2.20
2022-12-11T04:20:54.398Z,2.20
2022-12-11T04:22:15.539Z,2.20
2022-12-11T04:23:38.180Z,2.20
2022-12-11T04:24:44.019Z,2.20
2022-12-11T04:25:46.417Z,2.20
2022-12-11T04:26:49.976Z,2.20
2022-12-11T04:27:53.064Z,2.20
2022-12-11T04:29:02.289Z,2.20
2022-12-11T04:30:26.912Z,2.20
2022-12-11T04:31:36.134Z,2.20
2022-12-11T04:32:38.691Z,2.20
2022-12-11T04:33:42.772Z,2.20
2022-12-11T04:34:45.153Z,2.20
2022-12-11T04:35:48.809Z,2.20
2022-12-11T04:36:51.455Z,2.20
2022-12-11T04:37:55.291Z,2.20
2022-12-11T04:38:59.332Z,2.20
2022-12-11T04:40:02.934Z,2.20
2022-12-11T04:41:11.203Z,2.20
2022-12-11T04:42:13.684Z,2.20
2022-12-11T04:43:17.088Z,2.20
2022-12-11T04:44:19.485Z,2.20
2022-12-11T04:45:22.847Z,2.20
2022-12-11T04:46:25.857Z,2.20
2022-12-11T04:47:29.394Z,2.20
2022-12-11T04:48:31.832Z,2.20
2022-12-11T04:49:35.366Z,2.20
2022-12-11T04:50:40.140Z,2.20
2022-12-11T04:51:46.565Z,2.20
2022-12-11T04:52:48.949Z,2.20
2022-12-11T04:53:52.575Z,2.20
2022-12-11T04:54:58.707Z,2.20
2022-12-11T04:56:02.440Z,2.20
2022-12-11T04:57:04.998Z,2.20
2022-12-11T04:58:08.355Z,2.20
2022-12-11T04:59:14.217Z,2.20
2022-12-11T05:00:18.444Z,2.20
2022-12-11T05:01:22.912Z,2.20
2022-12-11T05:02:26.808Z,2.20
2022-12-11T05:03:29.169Z,2.20
2022-12-11T05:04:33.139Z,2.20
2022-12-11T05:05:35.539Z,2.20
2022-12-11T05:06:41.505Z,2.20
2022-12-11T05:07:44.120Z,2.20
2022-12-11T05:08:49.970Z,2.20
2022-12-11T05:09:52.726Z,2.20
2022-12-11T05:11:01.438Z,2.20
2022-12-11T05:12:04.221Z,2.20
2022-12-11T05:13:07.776Z,2.20
2022-12-11T05:14:10.176Z,2.20
2022-12-11T05:15:13.826Z,2.20
2022-12-11T05:16:17.543Z,2.20
2022-12-11T05:17:21.936Z,2.20
2022-12-11T05:18:27.237Z,2.20
2022-12-11T05:19:31.106Z,2.20
2022-12-11T05:20:33.687Z,2.20
2022-12-11T05:21:40.844Z,2.20
2022-12-11T05:22:43.329Z,2.20
2022-12-11T05:23:50.420Z,2.20
2022-12-11T05:24:55.158Z,2.20
2022-12-11T05:26:03.435Z,2.20
2022-12-11T05:27:05.845Z,2.20
2022-12-11T05:28:09.311Z,2.20
2022-12-11T05:29:13.884Z,2.20
2022-12-11T05:30:17.915Z,2.20
2022-12-11T05:31:23.297Z,2.20
2022-12-11T05:32:27.032Z,2.20
2022-12-11T05:33:30.184Z,2.20
2022-12-11T05:34:36.542Z,2.20
2022-12-11T05:35:39.021Z,2.20
2022-12-11T05:36:42.457Z,2.20
2022-12-11T05:37:44.991Z,2.20
2022-12-11T05:38:52.744Z,2.20
2022-12-11T05:39:58.758Z,2.20
2022-12-11T05:41:04.986Z,2.20
2022-12-11T05:42:08.373Z,2.20
2022-12-11T05:43:10.937Z,2.20
2022-12-11T05:44:14.768Z,2.20
2022-12-11T05:45:18.301Z,2.20
2022-12-11T05:46:23.762Z,2.20
2022-12-11T05:47:27.341Z,2.20
2022-12-11T05:48:29.834Z,2.20
2022-12-11T05:49:33.294Z,2.20
2022-12-11T05:50:35.741Z,2.20
2022-12-11T05:51:39.647Z,2.20
2022-12-11T05:52:42.169Z,2.20
2022-12-11T05:53:47.768Z,2.20
2022-12-11T05:54:50.698Z,2.20
2022-12-11T05:55:54.488Z,2.20
2022-12-11T05:56:58.196Z,2.10
2022-12-11T05:58:01.711Z,2.10
2022-12-11T05:59:06.089Z,2.10
2022-12-11T06:00:12.771Z,2.10
2022-12-11T06:01:17.771Z,2.10
2022-12-11T06:02:21.573Z,2.10
2022-12-11T06:03:24.026Z,2.10
2022-12-11T06:04:27.558Z,2.10
2022-12-11T06:05:30.013Z,2.10
2022-12-11T06:06:35.058Z,2.10
2022-12-11T06:07:38.660Z,2.10
2022-12-11T06:08:41.168Z,2.10
2022-12-11T06:09:47.879Z,2.10
2022-12-11T06:10:51.584Z,2.10
2022-12-11T06:11:55.310Z,2.10
2022-12-11T06:12:59.824Z,2.10
2022-12-11T06:14:04.548Z,2.10
2022-12-11T06:15:10.667Z,2.10
2022-12-11T06:16:14.663Z,2.10
2022-12-11T06:17:17.291Z,2.10
2022-12-11T06:18:23.688Z,2.10
2022-12-11T06:19:26.251Z,2.10
2022-12-11T06:20:33.661Z,2.10
2022-12-11T06:21:35.936Z,2.10
2022-12-11T06:22:39.666Z,2.10
2022-12-11T06:23:43.176Z,2.10
2022-12-11T06:24:49.433Z,2.10
2022-12-11T06:25:54.424Z,2.10
2022-12-11T06:26:58.311Z,2.10
2022-12-11T06:28:02.115Z,2.10
2022-12-11T06:29:09.258Z,2.10
2022-12-11T06:30:15.257Z,2.10
2022-12-11T06:31:19.752Z,2.10
2022-12-11T06:32:24.612Z,2.10
2022-12-11T06:33:28.163Z,2.10
2022-12-11T06:34:33.787Z,2.10
2022-12-11T06:35:41.653Z,2.10
2022-12-11T06:36:45.820Z,2.10
2022-12-11T06:37:48.267Z,2.10
2022-12-11T06:38:52.749Z,2.10
2022-12-11T06:39:55.197Z,2.10
2022-12-11T06:40:59.628Z,2.10
2022-12-11T06:42:02.061Z,2.10
2022-12-11T06:43:06.844Z,2.10
2022-12-11T06:44:09.655Z,2.10
2022-12-11T06:45:15.550Z,2.10
2022-12-11T06:46:21.960Z,2.10
2022-12-11T06:47:24.560Z,2.10
2022-12-11T06:48:28.149Z,2.10
2022-12-11T06:49:30.735Z,2.10
2022-12-11T06:50:34.288Z,2.10
2022-12-11T06:51:39.980Z,2.10
2022-12-11T06:52:43.352Z,2.10
2022-12-11T06:53:52.132Z,2.10
2022-12-11T06:54:56.050Z,2.10
2022-12-11T06:56:04.036Z,2.10
2022-12-11T06:57:07.752Z,2.10
2022-12-11T06:58:19.098Z,2.10
2022-12-11T06:59:22.510Z,2.10
2022-12-11T07:00:25.008Z,2.10
2022-12-11T07:01:29.843Z,2.10
2022-12-11T07:02:32.491Z,2.10
2022-12-11T07:03:38.253Z,2.10
2022-12-11T07:04:43.596Z,2.10
2022-12-11T07:05:47.500Z,2.10
2022-12-11T07:06:53.483Z,2.10
2022-12-11T07:07:59.796Z,2.10
2022-12-11T07:09:05.186Z,2.10
2022-12-11T07:10:10.593Z,2.10
2022-12-11T07:11:16.334Z,2.10
2022-12-11T07:12:21.195Z,2.10
2022-12-11T07:13:26.109Z,2.10
2022-12-11T07:14:28.577Z,2.10
2022-12-11T07:15:33.606Z,2.10
2022-12-11T07:16:41.211Z,2.10
2022-12-11T07:17:46.938Z,2.10
2022-12-11T07:18:53.538Z,2.10
2022-12-11T07:19:57.093Z,2.10
2022-12-11T07:21:00.234Z,2.10
2022-12-11T07:22:03.758Z,2.10
2022-12-11T07:23:09.302Z,2.10
2022-12-11T07:24:12.948Z,2.10
2022-12-11T07:25:15.582Z,2.00
2022-12-11T07:26:22.070Z,2.10
2022-12-11T07:27:29.068Z,2.10
2022-12-11T07:28:37.112Z,2.00
2022-12-11T07:29:40.109Z,2.00
2022-12-11T07:30:43.483Z,2.00
2022-12-11T07:31:46.085Z,2.00
2022-12-11T07:32:49.499Z,2.00
2022-12-11T07:33:55.141Z,2.00
2022-12-11T07:34:58.733Z,2.00
2022-12-11T07:36:03.496Z,2.00
2022-12-11T07:37:10.048Z,2.00
2022-12-11T07:38:13.410Z,2.00
2022-12-11T07:39:18.835Z,2.00
2022-12-11T07:40:21.208Z,2.00
2022-12-11T07:41:28.801Z,2.00
2022-12-11T07:42:32.234Z,2.00
2022-12-11T07:43:36.870Z,2.00
2022-12-11T07:44:40.302Z,2.00
2022-12-11T07:45:43.637Z,2.00
2022-12-11T07:46:46.160Z,2.00
2022-12-11T07:47:49.540Z,2.00
2022-12-11T07:48:52.526Z,2.00
2022-12-11T07:49:56.033Z,2.00
2022-12-11T07:51:11.021Z,2.00
2022-12-11T07:52:14.572Z,2.00
2022-12-11T07:53:17.047Z,2.00
2022-12-11T07:54:21.189Z,2.00
2022-12-11T07:55:24.816Z,2.00
2022-12-11T07:56:31.192Z,2.00
2022-12-11T07:57:37.176Z,2.00
2022-12-11T07:58:42.844Z,2.00
2022-12-11T07:59:47.463Z,2.00
2022-12-11T08:00:50.234Z,2.00
2022-12-11T08:01:58.803Z,2.00
2022-12-11T08:03:04.571Z,2.00
2022-12-11T08:04:10.854Z,2.00
2022-12-11T08:05:14.134Z,2.00
2022-12-11T08:06:21.438Z,2.00
2022-12-11T08:07:25.038Z,2.00
2022-12-11T08:08:28.818Z,2.00
2022-12-11T08:09:32.435Z,2.00
2022-12-11T08:10:34.895Z,2.00
2022-12-11T08:11:39.446Z,2.00
2022-12-11T08:12:43.047Z,2.00
2022-12-11T08:13:46.972Z,2.00
2022-12-11T08:14:53.262Z,2.00
2022-12-11T08:15:55.757Z,2.00
2022-12-11T08:17:00.344Z,2.00
2022-12-11T08:18:03.341Z,2.00
2022-12-11T08:19:06.866Z,2.00
2022-12-11T08:20:11.270Z,2.00
2022-12-11T08:21:17.791Z,2.00
2022-12-11T08:22:21.169Z,2.00
2022-12-11T08:23:23.548Z,2.00
2022-12-11T08:24:27.638Z,2.00
2022-12-11T08:25:30.012Z,2.00
2022-12-11T08:26:35.944Z,2.00
2022-12-11T08:27:41.010Z,2.00
2022-12-11T08:28:43.368Z,2.00
2022-12-11T08:29:48.650Z,2.00
2022-12-11T08:30:51.042Z,2.00
2022-12-11T08:31:58.782Z,2.00
2022-12-11T08:33:01.287Z,2.00
2022-12-11T08:34:04.921Z,2.00
2022-12-11T08:35:09.864Z,2.00
2022-12-11T08:36:17.015Z,2.00
2022-12-11T08:37:22.689Z,2.00
2022-12-11T08:38:28.538Z,2.00
2022-12-11T08:39:31.196Z,2.00
2022-12-11T08:40:34.706Z,2.10
2022-12-11T08:41:37.248Z,2.10
2022-12-11T08:42:40.785Z,2.10
2022-12-11T08:43:44.092Z,2.10
2022-12-11T08:44:49.376Z,2.10
2022-12-11T08:45:51.974Z,2.10
2022-12-11T08:46:56.544Z,2.10
2022-12-11T08:47:59.606Z,2.10
2022-12-11T08:49:05.705Z,2.10
2022-12-11T08:50:12.400Z,2.10
2022-12-11T08:51:20.771Z,2.10
2022-12-11T08:52:24.511Z,2.20
2022-12-11T08:53:27.167Z,2.20
2022-12-11T08:54:31.061Z,2.20
2022-12-11T08:55:33.857Z,2.20
2022-12-11T08:56:37.394Z,2.20
2022-12-11T08:57:41.077Z,2.20
2022-12-11T08:58:47.160Z,2.20
2022-12-11T08:59:51.913Z,2.20
2022-12-11T09:00:54.531Z,2.20
2022-12-11T09:02:00.535Z,2.20
2022-12-11T09:03:03.099Z,2.20
2022-12-11T09:04:07.465Z,2.20
2022-12-11T09:05:12.814Z,2.30
2022-12-11T09:06:19.047Z,2.30
2022-12-11T09:07:22.442Z,2.30
2022-12-11T09:08:25.097Z,2.30
2022-12-11T09:09:28.582Z,2.30
2022-12-11T09:10:30.954Z,2.30
2022-12-11T09:11:37.419Z,2.30
2022-12-11T09:12:41.019Z,2.30
2022-12-11T09:13:44.119Z,2.30
2022-12-11T09:14:47.760Z,2.30
2022-12-11T09:15:52.710Z,2.40
2022-12-11T09:16:56.164Z,2.40
2022-12-11T09:17:58.534Z,2.40
2022-12-11T09:19:02.111Z,2.40
2022-12-11T09:20:06.823Z,2.40
2022-12-11T09:21:15.188Z,2.40
2022-12-11T09:22:20.926Z,2.40
2022-12-11T09:23:23.331Z,2.40
2022-12-11T09:24:27.043Z,2.40
2022-12-11T09:28:59.278Z,2.50
2022-12-11T09:30:05.268Z,2.50
2022-12-11T09:31:15.808Z,2.50
2022-12-11T09:32:19.446Z,2.50
2022-12-11T09:33:24.324Z,2.50
2022-12-11T09:34:29.620Z,2.50
2022-12-11T09:35:33.108Z,2.50
2022-12-11T09:36:40.603Z,2.50
2022-12-11T09:37:46.344Z,2.50
2022-12-11T09:38:50.048Z,2.50
2022-12-11T09:39:55.732Z,2.50
2022-12-11T09:41:02.657Z,2.50
2022-12-11T09:42:16.054Z,2.50
2022-12-11T09:43:33.641Z,2.60
2022-12-11T09:44:47.243Z,2.60
2022-12-11T09:45:56.377Z,2.60
2022-12-11T09:47:03.352Z,2.60
2022-12-11T09:48:07.976Z,2.60
2022-12-11T09:49:27.700Z,2.60
2022-12-11T09:50:36.134Z,2.60
2022-12-11T09:51:44.384Z,2.70
2022-12-11T09:53:06.982Z,2.70
2022-12-11T09:54:15.606Z,2.70
2022-12-11T09:55:24.689Z,2.70
2022-12-11T09:56:40.445Z,2.70
2022-12-11T09:57:57.234Z,2.70
2022-12-11T09:59:10.668Z,2.70
2022-12-11T10:00:23.314Z,2.70
2022-12-11T10:01:38.948Z,2.70
2022-12-11T10:03:29.272Z,2.70
2022-12-11T10:04:50.481Z,2.70
2022-12-11T10:06:05.387Z,2.80
2022-12-11T10:07:17.380Z,2.80
2022-12-11T10:08:34.490Z,2.80
2022-12-11T10:09:52.154Z,2.80
2022-12-11T10:11:12.843Z,2.90
2022-12-11T10:12:39.429Z,2.90
2022-12-11T10:13:51.122Z,2.90
2022-12-11T10:15:16.981Z,2.90
2022-12-11T10:16:30.814Z,3.00
2022-12-11T10:17:38.410Z,3.00
2022-12-11T10:18:47.343Z,3.00
2022-12-11T10:19:51.106Z,3.00
2022-12-11T10:20:57.870Z,3.00
2022-12-11T10:22:03.766Z,3.00
2022-12-11T10:23:44.874Z,3.00
2022-12-11T10:25:14.297Z,3.00
2022-12-11T10:26:23.237Z,3.00
2022-12-11T10:27:32.638Z,3.10
2022-12-11T10:28:41.342Z,3.10
2022-12-11T10:29:47.982Z,3.10
2022-12-11T10:31:03.805Z,3.10
2022-12-11T10:32:16.984Z,3.10
2022-12-11T10:33:30.323Z,3.10
2022-12-11T10:34:37.609Z,3.20
2022-12-11T10:35:50.090Z,3.20
2022-12-11T10:37:00.578Z,3.20
2022-12-11T10:38:25.643Z,3.20
2022-12-11T10:39:32.294Z,3.20
2022-12-11T10:40:36.318Z,3.30
2022-12-11T10:41:42.999Z,3.30
2022-12-11T10:42:54.554Z,3.30
2022-12-11T10:43:57.235Z,3.30
2022-12-11T10:45:02.983Z,3.30
2022-12-11T10:46:17.303Z,3.30
2022-12-11T10:47:21.219Z,3.30
2022-12-11T10:48:26.544Z,3.30
2022-12-11T10:49:32.265Z,3.30
2022-12-11T10:50:39.958Z,3.30
2022-12-11T10:51:44.150Z,3.40
2022-12-11T10:52:52.608Z,3.40
2022-12-11T10:54:12.136Z,3.40
2022-12-11T10:55:23.453Z,3.40
2022-12-11T10:56:31.745Z,3.40
2022-12-11T10:57:39.256Z,3.40
2022-12-11T10:58:55.316Z,3.40
2022-12-11T11:00:00.773Z,3.40
2022-12-11T11:01:11.306Z,3.40
2022-12-11T11:02:26.448Z,3.40
2022-12-11T11:03:30.633Z,3.40
2022-12-11T11:04:40.096Z,3.40
2022-12-11T11:05:49.255Z,3.40
2022-12-11T11:07:04.864Z,3.40
2022-12-11T11:08:19.344Z,3.40
2022-12-11T11:09:31.116Z,3.40
2022-12-11T11:10:35.251Z,3.40
2022-12-11T11:11:40.503Z,3.40
2022-12-11T11:12:47.607Z,3.40
2022-12-11T11:13:51.112Z,3.40
2022-12-11T11:15:02.623Z,3.30
2022-12-11T11:16:12.827Z,3.30
2022-12-11T11:17:18.622Z,3.30
2022-12-11T11:18:27.646Z,3.30
2022-12-11T11:19:34.708Z,3.30
2022-12-11T11:20:38.487Z,3.30
2022-12-11T11:21:53.570Z,3.40
2022-12-11T11:23:00.228Z,3.40
2022-12-11T11:24:04.886Z,3.40
2022-12-11T11:25:21.192Z,3.40
2022-12-11T11:26:38.241Z,3.40
2022-12-11T11:27:54.476Z,3.40
2022-12-11T11:28:59.344Z,3.40
2022-12-11T11:30:05.757Z,3.40
2022-12-11T11:31:16.703Z,3.40
2022-12-11T11:32:30.153Z,3.40
2022-12-11T11:33:35.426Z,3.40
2022-12-11T11:34:38.838Z,3.40
2022-12-11T11:35:53.348Z,3.40
2022-12-11T11:37:05.747Z,3.40
2022-12-11T11:38:20.164Z,3.40
2022-12-11T11:39:32.940Z,3.40
2022-12-11T11:40:44.524Z,3.40
2022-12-11T11:41:55.169Z,3.40
2022-12-11T11:43:11.102Z,3.40
2022-12-11T11:44:21.028Z,3.40
2022-12-11T11:45:31.787Z,3.40
2022-12-11T11:46:41.314Z,3.40
2022-12-11T11:47:59.740Z,3.40
2022-12-11T11:49:18.465Z,3.40
2022-12-11T11:50:29.143Z,3.40
2022-12-11T11:51:44.359Z,3.40
2022-12-11T11:53:02.670Z,3.40
2022-12-11T11:54:21.950Z,3.40
2022-12-11T11:55:38.951Z,3.40
2022-12-11T11:56:45.153Z,3.40
2022-12-11T11:57:58.309Z,3.40
2022-12-11T11:59:12.511Z,3.40
2022-12-11T12:00:21.950Z,3.40
2022-12-11T12:01:25.963Z,3.40
2022-12-11T12:02:30.064Z,3.40
2022-12-11T12:03:33.545Z,3.40
2022-12-11T12:04:39.214Z,3.50
2022-12-11T12:05:53.847Z,3.50
2022-12-11T12:07:35.026Z,3.50
2022-12-11T12:08:48.022Z,3.50
2022-12-11T12:09:58.808Z,3.50
2022-12-11T12:11:11.386Z,3.60
2022-12-11T12:12:27.448Z,3.60
2022-12-11T12:13:49.462Z,3.60
2022-12-11T12:15:11.873Z,3.60
2022-12-11T12:17:57.345Z,3.60
2022-12-11T12:19:11.244Z,3.60
2022-12-11T12:20:22.741Z,3.60
2022-12-11T12:21:35.335Z,3.60
2022-12-11T12:22:58.279Z,3.60
2022-12-11T12:24:19.914Z,3.60
2022-12-11T12:25:30.061Z,3.60
2022-12-11T12:26:37.382Z,3.60
2022-12-11T12:27:53.116Z,3.60
2022-12-11T12:29:09.177Z,3.60
2022-12-11T12:30:22.356Z,3.50
2022-12-11T12:31:47.891Z,3.50
2022-12-11T12:33:14.495Z,3.50
2022-12-11T12:34:30.284Z,3.50
2022-12-11T12:35:38.107Z,3.50
2022-12-11T12:36:54.976Z,3.50
2022-12-11T12:38:12.924Z,3.50
2022-12-11T12:39:27.325Z,3.50
2022-12-11T12:40:34.700Z,3.50
2022-12-11T12:41:49.370Z,3.50
2022-12-11T12:43:06.896Z,3.50
2022-12-11T12:44:16.725Z,3.50
2022-12-11T12:45:30.257Z,3.40
2022-12-11T12:46:57.387Z,3.40
2022-12-11T12:48:01.421Z,3.40
2022-12-11T12:49:08.836Z,3.40
2022-12-11T12:50:17.571Z,3.40
2022-12-11T12:51:22.277Z,3.40
2022-12-11T12:52:33.712Z,3.40
2022-12-11T12:53:38.229Z,3.40
2022-12-11T12:55:10.144Z,3.40
2022-12-11T12:56:14.893Z,3.40
2022-12-11T12:57:18.520Z,3.30
2022-12-11T12:58:29.472Z,3.40
2022-12-11T12:59:33.279Z,3.30
2022-12-11T13:00:39.021Z,3.40
2022-12-11T13:01:52.311Z,3.40
2022-12-11T13:02:59.337Z,3.30
2022-12-11T13:04:06.274Z,3.30
2022-12-11T13:05:23.075Z,3.30
2022-12-11T13:06:37.510Z,3.30
2022-12-11T13:07:54.455Z,3.30
2022-12-11T13:08:59.112Z,3.30
2022-12-11T13:10:24.114Z,3.40
2022-12-11T13:11:35.250Z,3.40
2022-12-11T13:12:46.504Z,3.30
2022-12-11T13:14:02.887Z,3.40
2022-12-11T13:15:07.239Z,3.40
2022-12-11T13:16:36.907Z,3.40
2022-12-11T13:17:42.659Z,3.40
2022-12-11T13:18:50.198Z,3.40
2022-12-11T13:20:15.336Z,3.30
2022-12-11T13:21:30.654Z,3.30
2022-12-11T13:22:35.425Z,3.30
2022-12-11T13:23:40.317Z,3.30
2022-12-11T13:24:48.664Z,3.30
2022-12-11T13:25:57.911Z,3.30
2022-12-11T13:27:11.433Z,3.30
2022-12-11T13:28:32.327Z,3.30
2022-12-11T13:29:38.749Z,3.30
2022-12-11T13:30:43.915Z,3.30
2022-12-11T13:31:59.904Z,3.30
2022-12-11T13:33:07.612Z,3.30
2022-12-11T13:34:19.055Z,3.30
2022-12-11T13:35:21.667Z,3.20
2022-12-11T13:36:32.607Z,3.20
2022-12-11T13:37:42.226Z,3.20
2022-12-11T13:38:49.582Z,3.20
2022-12-11T13:39:53.669Z,3.20
2022-12-11T13:41:00.022Z,3.20
2022-12-11T13:42:07.669Z,3.20
2022-12-11T13:43:19.556Z,3.20
2022-12-11T13:44:28.184Z,3.20
2022-12-11T13:45:40.615Z,3.20
2022-12-11T13:46:47.343Z,3.20
2022-12-11T13:47:50.428Z,3.20
2022-12-11T13:48:57.275Z,3.20
2022-12-11T13:50:19.799Z,3.10
2022-12-11T13:51:25.695Z,3.10
2022-12-11T13:52:29.212Z,3.10
2022-12-11T13:53:32.521Z,3.20
2022-12-11T13:54:37.605Z,3.10
2022-12-11T13:55:39.990Z,3.10
2022-12-11T13:57:00.389Z,3.10
2022-12-11T13:58:03.958Z,3.10
2022-12-11T13:59:24.629Z,3.10
2022-12-11T14:00:32.593Z,3.10
2022-12-11T14:01:38.801Z,3.10
2022-12-11T14:02:43.332Z,3.10
2022-12-11T14:03:57.421Z,3.00
2022-12-11T14:05:06.281Z,3.00
2022-12-11T14:06:18.057Z,3.00
2022-12-11T14:07:27.597Z,3.00
2022-12-11T14:08:35.834Z,3.00
2022-12-11T14:09:44.285Z,3.00
2022-12-11T14:10:54.282Z,3.00
2022-12-11T14:11:59.544Z,3.00
2022-12-11T14:13:08.498Z,3.00
2022-12-11T14:14:22.021Z,3.00
2022-12-11T14:15:26.160Z,3.00
2022-12-11T14:16:29.672Z,3.00
2022-12-11T14:17:36.350Z,3.00
2022-12-11T14:18:42.865Z,3.00
2022-12-11T14:19:49.031Z,3.00
2022-12-11T14:20:55.960Z,3.00
2022-12-11T14:22:02.833Z,3.00
2022-12-11T14:23:07.891Z,3.00
2022-12-11T14:24:13.253Z,3.00
2022-12-11T14:25:25.234Z,3.00
2022-12-11T14:26:30.689Z,3.00
2022-12-11T14:27:35.489Z,2.90
2022-12-11T14:28:44.289Z,2.90
2022-12-11T14:29:48.430Z,2.90
2022-12-11T14:30:53.095Z,2.90
2022-12-11T14:31:57.549Z,3.00
2022-12-11T14:33:05.628Z,2.90
2022-12-11T14:34:15.567Z,2.90
2022-12-11T14:35:27.532Z,2.90
2022-12-11T14:36:32.914Z,2.90
2022-12-11T14:37:37.579Z,2.90
2022-12-11T14:38:47.394Z,2.90
2022-12-11T14:39:58.786Z,3.00
2022-12-11T14:41:12.148Z,3.00
2022-12-11T14:42:20.843Z,3.00
2022-12-11T14:43:32.854Z,3.00
2022-12-11T14:44:51.075Z,3.00
2022-12-11T14:46:02.502Z,2.90
2022-12-11T14:47:13.868Z,2.90
2022-12-11T14:48:23.556Z,3.00
2022-12-11T14:49:35.000Z,2.90
2022-12-11T14:50:43.783Z,3.00
2022-12-11T14:51:47.105Z,2.90
2022-12-11T14:52:55.685Z,2.90
2022-12-11T14:53:59.743Z,2.90
2022-12-11T14:55:10.532Z,2.90
2022-12-11T14:56:21.052Z,2.90
2022-12-11T14:57:31.111Z,2.90
2022-12-11T14:58:43.780Z,2.90
2022-12-11T14:59:50.803Z,2.90
2022-12-11T15:01:03.402Z,2.90
2022-12-11T15:02:25.534Z,2.90
2022-12-11T15:03:34.732Z,2.90
2022-12-11T15:04:40.476Z,2.90
2022-12-11T15:05:52.084Z,2.90
2022-12-11T15:06:55.844Z,2.90
2022-12-11T15:08:02.805Z,2.90
2022-12-11T15:09:23.248Z,2.90
2022-12-11T15:10:32.878Z,2.90
2022-12-11T15:11:36.256Z,2.90
2022-12-11T15:12:45.741Z,2.90
2022-12-11T15:13:54.782Z,2.90
2022-12-11T15:15:01.904Z,2.90
2022-12-11T15:16:10.259Z,2.90
2022-12-11T15:17:16.443Z,2.90
2022-12-11T15:18:24.596Z,2.80
2022-12-11T15:19:32.542Z,2.90
2022-12-11T15:20:36.084Z,2.80
2022-12-11T15:21:40.981Z,2.80
2022-12-11T15:22:45.134Z,2.80
2022-12-11T15:23:54.247Z,2.80
2022-12-11T15:24:57.689Z,2.80
2022-12-11T15:26:03.176Z,2.80
2022-12-11T15:27:07.881Z,2.80
2022-12-11T15:28:35.964Z,2.80
2022-12-11T15:29:41.555Z,2.80
2022-12-11T15:30:45.099Z,2.80
2022-12-11T15:32:02.619Z,2.80
2022-12-11T15:33:22.635Z,2.80
2022-12-11T15:34:32.604Z,2.80
2022-12-11T15:35:36.351Z,2.80
2022-12-11T15:36:39.751Z,2.80
2022-12-11T15:37:54.984Z,2.70
2022-12-11T15:38:59.136Z,2.70
2022-12-11T15:40:05.729Z,2.70
2022-12-11T15:41:16.847Z,2.80
2022-12-11T15:42:27.741Z,2.70
2022-12-11T15:43:38.813Z,2.70
2022-12-11T15:44:46.094Z,2.70
2022-12-11T15:45:48.966Z,2.70
2022-12-11T15:46:52.436Z,2.70
2022-12-11T15:47:56.507Z,2.70
2022-12-11T15:49:00.038Z,2.70
2022-12-11T15:50:14.328Z,2.70
2022-12-11T15:51:17.279Z,2.70
2022-12-11T15:52:21.063Z,2.70
2022-12-11T15:53:28.130Z,2.70
2022-12-11T15:54:31.610Z,2.70
2022-12-11T15:55:35.577Z,2.70
2022-12-11T15:56:38.983Z,2.70
2022-12-11T15:57:49.264Z,2.70
2022-12-11T15:58:51.601Z,2.70
2022-12-11T15:59:57.118Z,2.70
2022-12-11T16:01:01.648Z,2.70
2022-12-11T16:02:05.265Z,2.70
2022-12-11T16:03:14.981Z,2.70
2022-12-11T16:04:17.412Z,2.70
2022-12-11T16:05:22.498Z,2.70
2022-12-11T16:06:26.596Z,2.70
2022-12-11T16:07:30.387Z,2.70
2022-12-11T16:08:36.340Z,2.70
2022-12-11T16:09:39.721Z,2.70
2022-12-11T16:10:46.356Z,2.70
2022-12-11T16:11:49.607Z,2.70
2022-12-11T16:12:53.204Z,2.70
2022-12-11T16:13:56.525Z,2.70
2022-12-11T16:15:01.375Z,2.70
2022-12-11T16:16:03.911Z,2.70
2022-12-11T16:17:08.278Z,2.70
2022-12-11T16:18:16.852Z,2.70
2022-12-11T16:19:22.197Z,2.70
2022-12-11T16:20:25.929Z,2.70
2022-12-11T16:21:29.596Z,2.70
2022-12-11T16:22:31.996Z,2.70
2022-12-11T16:23:35.709Z,2.70
2022-12-11T16:24:41.711Z,2.70
2022-12-11T16:25:46.738Z,2.70
2022-12-11T16:26:49.161Z,2.70
2022-12-11T16:27:55.975Z,2.70
2022-12-11T16:28:59.586Z,2.70
2022-12-11T16:30:07.384Z,2.70
2022-12-11T16:31:13.204Z,2.70
2022-12-11T16:32:15.706Z,2.70